createdAt,value
2023-05-21T00:02:00.350Z,3.80
2023-05-21T00:04:30.196Z,5.20
2023-05-21T00:07:00.424Z,4.90
2023-05-21T00:09:27.433Z,5.00
2023-05-21T00:11:54.475Z,6.50
2023-05-21T00:14:21.954Z,4.60
2023-05-21T00:16:49.523Z,8.40
2023-05-21T00:19:17.215Z,5.50
2023-05-21T00:21:46.056Z,4.90
2023-05-21T00:24:13.515Z,4.50
2023-05-21T00:26:40.855Z,6.70
2023-05-21T00:29:08.239Z,4.90
2023-05-21T00:31:35.535Z,6.20
2023-05-21T00:34:02.848Z,6.70
2023-05-21T00:36:31.894Z,6.70
2023-05-21T00:45:11.830Z,8.20
2023-05-21T00:47:39.481Z,7.40
2023-05-21T00:50:07.202Z,8.00
2023-05-21T00:52:42.166Z,8.90
2023-05-21T00:55:10.278Z,8.80
2023-05-21T00:57:37.483Z,7.10
2023-05-21T01:00:09.252Z,8.50
2023-05-21T01:02:37.546Z,12.00
2023-05-21T01:05:08.881Z,10.50
2023-05-21T01:07:36.945Z,13.40
2023-05-21T01:10:04.923Z,10.40
2023-05-21T01:12:32.787Z,10.40
2023-05-21T01:15:01.050Z,10.90
2023-05-21T01:17:29.023Z,10.50
2023-05-21T01:19:57.936Z,12.50
2023-05-21T01:22:25.396Z,13.00
2023-05-21T01:24:55.780Z,14.00
2023-05-21T01:27:23.246Z,14.10
2023-05-21T01:29:51.220Z,15.10
2023-05-21T01:32:28.117Z,15.50
2023-05-21T01:35:10.805Z,16.30
2023-05-21T01:37:45.976Z,17.80
2023-05-21T01:40:39.530Z,20.10
2023-05-21T01:43:07.101Z,25.40
2023-05-21T01:45:34.671Z,25.60
2023-05-21T01:48:02.057Z,27.00
2023-05-21T01:50:29.760Z,25.50
2023-05-21T01:53:01.403Z,28.20
2023-05-21T01:55:31.184Z,27.40
2023-05-21T01:58:01.972Z,23.60
2023-05-21T02:00:31.216Z,22.90
2023-05-21T02:02:58.985Z,27.60
2023-05-21T02:05:26.367Z,23.40
2023-05-21T02:07:55.106Z,24.00
2023-05-21T02:10:22.975Z,29.50
2023-05-21T02:12:50.350Z,42.30
2023-05-21T02:15:19.499Z,52.60
2023-05-21T02:17:47.114Z,57.60
2023-05-21T02:20:14.800Z,58.80
2023-05-21T02:22:43.916Z,58.10
2023-05-21T02:25:12.190Z,58.60
2023-05-21T02:27:40.033Z,59.80
2023-05-21T02:30:10.986Z,54.10
2023-05-21T02:32:39.957Z,54.20
2023-05-21T02:35:07.582Z,53.80
2023-05-21T02:37:35.163Z,53.90
2023-05-21T02:40:04.306Z,52.30
2023-05-21T02:42:31.989Z,52.40
2023-05-21T02:44:59.349Z,50.10
2023-05-21T02:47:26.672Z,49.30
2023-05-21T02:49:54.124Z,48.20
2023-05-21T02:52:24.305Z,49.20
2023-05-21T02:54:52.327Z,46.50
2023-05-21T02:57:19.686Z,42.80
2023-05-21T02:59:46.814Z,41.60
2023-05-21T03:02:14.045Z,37.60
2023-05-21T03:04:46.704Z,36.40
2023-05-21T03:07:15.258Z,33.50
2023-05-21T03:09:44.470Z,35.30
2023-05-21T03:12:11.793Z,35.10
2023-05-21T03:14:39.711Z,37.00
2023-05-21T03:17:08.030Z,37.10
2023-05-21T03:19:36.241Z,37.00
2023-05-21T03:22:04.810Z,38.90
2023-05-21T03:24:35.469Z,33.20
2023-05-21T03:27:03.408Z,31.20
2023-05-21T03:29:31.382Z,34.10
2023-05-21T03:31:58.968Z,33.00
2023-05-21T03:34:26.335Z,30.40
2023-05-21T03:36:53.921Z,32.20
2023-05-21T03:39:21.485Z,28.00
2023-05-21T03:41:49.189Z,29.00
2023-05-21T03:44:22.072Z,30.40
2023-05-21T03:46:53.511Z,30.50
2023-05-21T03:49:24.486Z,26.60
2023-05-21T03:51:52.514Z,29.40
2023-05-21T03:54:20.062Z,21.90
2023-05-21T03:56:47.727Z,23.30
2023-05-21T03:59:15.072Z,22.00
2023-05-21T04:01:43.084Z,19.80
2023-05-21T04:04:12.413Z,22.40
2023-05-21T04:06:42.546Z,22.80
2023-05-21T04:09:10.413Z,19.30
2023-05-21T04:11:37.764Z,18.60
2023-05-21T04:14:05.024Z,18.50
2023-05-21T04:16:35.108Z,17.50
2023-05-21T04:19:02.342Z,17.90
2023-05-21T04:21:29.984Z,17.40
2023-05-21T04:23:58.067Z,15.30
2023-05-21T04:34:29.229Z,11.70
2023-05-21T04:36:56.291Z,11.50
2023-05-21T04:39:24.952Z,12.20
2023-05-21T04:41:54.165Z,12.30
2023-05-21T04:44:20.839Z,11.50
2023-05-21T04:46:48.590Z,10.90
2023-05-21T04:49:15.155Z,12.80
2023-05-21T04:51:41.732Z,10.80
2023-05-21T04:54:08.299Z,8.90
2023-05-21T04:56:35.273Z,9.80
2023-05-21T04:59:05.298Z,8.50
2023-05-21T05:01:34.745Z,8.50
2023-05-21T05:04:01.354Z,11.00
2023-05-21T05:06:28.019Z,18.50
2023-05-21T05:08:56.682Z,16.50
2023-05-21T05:11:23.548Z,14.50
2023-05-21T05:13:50.788Z,15.40
2023-05-21T05:16:17.684Z,13.20
2023-05-21T05:18:45.960Z,13.20
2023-05-21T05:21:12.737Z,12.10
2023-05-21T05:23:39.249Z,14.20
2023-05-21T05:26:07.069Z,14.90
2023-05-21T05:28:34.034Z,14.60
2023-05-21T05:31:01.401Z,13.40
2023-05-21T05:33:28.485Z,13.20
2023-05-21T05:35:55.122Z,10.50
2023-05-21T05:38:22.588Z,12.40
2023-05-21T05:40:49.019Z,9.70
2023-05-21T05:43:15.821Z,8.30
2023-05-21T05:45:43.266Z,8.60
2023-05-21T05:48:16.802Z,8.90
2023-05-21T05:50:44.473Z,7.50
2023-05-21T05:53:12.856Z,8.00
2023-05-21T05:55:40.386Z,7.00
2023-05-21T05:58:07.173Z,6.40
2023-05-21T06:00:42.646Z,7.00
2023-05-21T06:03:09.301Z,4.80
2023-05-21T06:05:36.151Z,7.20
2023-05-21T06:08:02.930Z,7.30
2023-05-21T06:10:29.599Z,5.60
2023-05-21T06:12:56.212Z,5.30
2023-05-21T06:15:22.697Z,4.60
2023-05-21T06:17:49.150Z,4.70
2023-05-21T06:20:16.819Z,6.70
2023-05-21T06:22:44.001Z,5.60
2023-05-21T06:25:10.957Z,5.00
2023-05-21T06:27:38.428Z,5.20
2023-05-21T06:30:08.421Z,4.90
2023-05-21T06:32:37.129Z,5.00
2023-05-21T06:35:05.019Z,5.40
2023-05-21T06:37:32.018Z,7.90
2023-05-21T06:39:58.424Z,6.30
2023-05-21T06:42:25.463Z,7.00
2023-05-21T06:44:59.179Z,6.30
2023-05-21T06:47:29.732Z,7.10
2023-05-21T06:49:56.356Z,7.70
2023-05-21T06:52:23.821Z,6.00
2023-05-21T06:54:50.840Z,6.80
2023-05-21T06:57:18.429Z,6.30
2023-05-21T06:59:44.884Z,7.60
2023-05-21T07:02:11.354Z,6.80
2023-05-21T07:04:38.210Z,6.80
2023-05-21T07:07:05.226Z,5.70
2023-05-21T07:09:32.109Z,6.60
2023-05-21T07:11:59.085Z,6.30
2023-05-21T07:14:26.325Z,5.80
2023-05-21T07:16:53.514Z,5.90
2023-05-21T07:19:20.774Z,6.40
2023-05-21T07:21:48.778Z,6.60
2023-05-21T07:24:15.302Z,5.20
2023-05-21T07:26:42.498Z,6.10
2023-05-21T07:29:10.665Z,6.80
2023-05-21T07:31:38.329Z,6.30
2023-05-21T07:34:05.762Z,5.90
2023-05-21T07:36:33.444Z,7.40
2023-05-21T07:39:00.639Z,5.90
2023-05-21T07:41:28.305Z,6.40
2023-05-21T07:43:56.399Z,6.10
2023-05-21T07:46:23.233Z,5.40
2023-05-21T07:48:52.272Z,6.10
2023-05-21T07:51:18.807Z,6.10
2023-05-21T07:53:45.508Z,5.50
2023-05-21T07:56:13.389Z,5.80
2023-05-21T07:58:41.094Z,5.00
2023-05-21T08:01:07.771Z,4.50
2023-05-21T08:03:35.618Z,5.70
2023-05-21T08:06:03.310Z,6.00
2023-05-21T08:08:30.602Z,6.60
2023-05-21T08:10:57.502Z,4.30
2023-05-21T08:13:25.546Z,5.90
2023-05-21T08:15:53.373Z,5.60
2023-05-21T08:18:25.110Z,5.40
2023-05-21T08:20:53.833Z,6.20
2023-05-21T08:23:20.849Z,4.80
2023-05-21T08:25:50.750Z,6.80
2023-05-21T08:28:17.717Z,5.10
2023-05-21T08:30:44.148Z,5.60
2023-05-21T08:33:11.093Z,4.30
2023-05-21T08:35:38.796Z,4.90
2023-05-21T08:38:27.039Z,4.60
2023-05-21T08:40:58.519Z,4.90
2023-05-21T08:43:27.102Z,4.60
2023-05-21T08:45:54.801Z,6.50
2023-05-21T08:48:23.782Z,7.10
2023-05-21T08:50:51.936Z,6.30
2023-05-21T08:53:28.272Z,7.40
2023-05-21T08:55:56.829Z,4.20
2023-05-21T08:58:25.554Z,7.10
2023-05-21T09:00:54.252Z,5.10
2023-05-21T09:03:22.647Z,5.20
2023-05-21T09:05:49.253Z,5.10
2023-05-21T09:08:18.391Z,6.00
2023-05-21T09:10:52.099Z,5.00
2023-05-21T09:13:21.199Z,4.30
2023-05-21T09:15:48.655Z,4.80
2023-05-21T09:18:15.905Z,5.90
2023-05-21T09:20:49.284Z,3.80
2023-05-21T09:23:17.112Z,4.30
2023-05-21T09:25:48.276Z,4.70
2023-05-21T09:28:21.595Z,3.50
2023-05-21T09:30:51.789Z,5.70
2023-05-21T09:33:25.896Z,5.50
2023-05-21T09:35:52.941Z,9.30
2023-05-21T09:38:22.192Z,5.20
2023-05-21T09:40:48.899Z,4.70
2023-05-21T09:43:16.783Z,6.70
2023-05-21T09:45:54.047Z,6.20
2023-05-21T09:48:39.035Z,5.70
2023-05-21T09:51:08.071Z,4.20
2023-05-21T09:53:34.900Z,5.50
2023-05-21T09:56:01.558Z,5.00
2023-05-21T09:58:29.378Z,5.40
2023-05-21T10:00:56.373Z,4.60
2023-05-21T10:03:23.241Z,6.50
2023-05-21T10:05:51.125Z,4.40
2023-05-21T10:08:18.657Z,7.00
2023-05-21T10:10:45.315Z,5.90
2023-05-21T10:13:12.371Z,6.20
2023-05-21T10:15:50.145Z,5.30
2023-05-21T10:18:17.841Z,6.40
2023-05-21T10:20:44.344Z,4.50
2023-05-21T10:23:10.779Z,4.50
2023-05-21T10:25:37.488Z,4.10
2023-05-21T10:28:06.405Z,4.90
2023-05-21T10:30:34.115Z,4.50
2023-05-21T10:33:01.561Z,3.00
2023-05-21T10:35:28.175Z,4.90
2023-05-21T10:37:55.248Z,5.30
2023-05-21T10:40:21.754Z,5.80
2023-05-21T10:43:07.222Z,5.70
2023-05-21T10:46:10.199Z,4.40
2023-05-21T10:48:50.580Z,5.10
2023-05-21T10:51:21.968Z,4.40
2023-05-21T10:54:01.432Z,4.20
2023-05-21T10:57:01.199Z,4.30
2023-05-21T10:59:56.820Z,4.60
2023-05-21T11:02:26.175Z,5.90
2023-05-21T11:04:59.606Z,5.80
2023-05-21T11:07:55.786Z,5.50
2023-05-21T11:10:39.918Z,3.90
2023-05-21T11:13:13.395Z,5.30
2023-05-21T11:15:58.785Z,4.80
2023-05-21T11:18:34.606Z,5.40
2023-05-21T11:21:05.648Z,4.40
2023-05-21T11:24:39.331Z,4.70
2023-05-21T11:27:07.263Z,6.10
2023-05-21T11:29:42.450Z,8.00
2023-05-21T11:32:09.853Z,5.70
2023-05-21T11:34:42.117Z,4.20
2023-05-21T11:37:29.219Z,6.00
2023-05-21T11:39:58.253Z,8.10
2023-05-21T11:42:36.441Z,5.90
2023-05-21T11:45:04.376Z,5.60
2023-05-21T11:47:32.742Z,4.00
2023-05-21T11:50:01.470Z,5.50
2023-05-21T11:52:30.300Z,6.50
2023-05-21T11:54:58.376Z,5.60
2023-05-21T11:57:29.261Z,5.10
2023-05-21T11:59:58.651Z,5.10
2023-05-21T12:02:30.033Z,6.20
2023-05-21T12:05:00.810Z,5.20
2023-05-21T12:07:29.869Z,6.50
2023-05-21T12:09:57.317Z,6.90
2023-05-21T12:12:27.178Z,5.70
2023-05-21T12:14:56.493Z,4.40
2023-05-21T12:17:24.780Z,7.00
2023-05-21T12:19:53.759Z,5.00
2023-05-21T12:22:21.101Z,4.80
2023-05-21T12:24:51.260Z,6.30
2023-05-21T12:27:18.556Z,3.70
2023-05-21T12:29:46.871Z,4.50
2023-05-21T12:32:15.003Z,3.40
2023-05-21T12:34:50.073Z,3.60
2023-05-21T12:37:32.904Z,3.90
2023-05-21T12:40:01.368Z,4.30
2023-05-21T12:42:34.984Z,4.20
2023-05-21T12:45:06.639Z,4.90
2023-05-21T12:47:34.520Z,4.60
2023-05-21T12:50:02.482Z,3.70
2023-05-21T12:52:33.285Z,4.70
2023-05-21T12:55:01.278Z,8.50
2023-05-21T12:57:35.876Z,4.30
2023-05-21T13:07:40.015Z,5.40
2023-05-21T13:10:08.116Z,4.50
2023-05-21T13:12:37.209Z,4.70
2023-05-21T13:15:05.384Z,4.20
2023-05-21T13:17:33.098Z,5.10
2023-05-21T13:20:13.960Z,4.10
2023-05-21T13:22:49.146Z,6.80
2023-05-21T13:25:21.535Z,4.40
2023-05-21T13:27:49.794Z,7.80
2023-05-21T13:30:20.069Z,6.80
2023-05-21T13:32:48.065Z,4.50
2023-05-21T13:35:17.378Z,6.20
2023-05-21T13:37:45.407Z,5.30
2023-05-21T13:40:17.295Z,3.90
2023-05-21T13:42:45.807Z,4.30
2023-05-21T13:45:14.190Z,3.80
2023-05-21T13:47:45.498Z,6.50
2023-05-21T13:50:12.895Z,4.40
2023-05-21T13:52:40.357Z,4.60
2023-05-21T13:55:08.206Z,5.20
2023-05-21T13:57:35.614Z,5.50
2023-05-21T14:00:03.429Z,5.80
2023-05-21T14:02:35.645Z,5.00
2023-05-21T14:05:02.940Z,5.20
2023-05-21T14:07:31.157Z,6.60
2023-05-21T14:09:58.586Z,4.80
2023-05-21T14:12:26.879Z,5.50
2023-05-21T14:14:53.963Z,10.40
2023-05-21T14:17:21.339Z,5.10
2023-05-21T14:19:48.682Z,4.80
2023-05-21T14:22:16.389Z,6.30
2023-05-21T14:24:43.743Z,6.80
2023-05-21T14:27:12.592Z,8.70
2023-05-21T14:29:41.202Z,10.00
2023-05-21T14:32:08.598Z,14.90
2023-05-21T14:34:38.642Z,15.10
2023-05-21T14:44:47.860Z,18.10
2023-05-21T14:47:15.120Z,18.50
2023-05-21T14:49:42.358Z,16.50
2023-05-21T14:52:09.613Z,18.30
2023-05-21T14:54:37.683Z,21.60
2023-05-21T14:57:05.153Z,22.40
2023-05-21T14:59:32.522Z,19.00
2023-05-21T15:02:01.047Z,16.80
2023-05-21T15:04:28.576Z,15.90
2023-05-21T15:06:56.136Z,14.10
2023-05-21T15:09:23.465Z,14.50
2023-05-21T15:11:52.974Z,20.00
2023-05-21T15:14:20.939Z,15.80
2023-05-21T15:16:48.280Z,14.90
2023-05-21T15:19:15.889Z,24.20
2023-05-21T15:21:43.427Z,12.90
2023-05-21T15:24:11.600Z,13.90
2023-05-21T15:26:38.838Z,12.30
2023-05-21T15:29:06.928Z,13.60
2023-05-21T15:31:34.164Z,12.70
2023-05-21T15:34:01.318Z,14.70
2023-05-21T15:36:28.895Z,12.90
2023-05-21T15:38:56.210Z,12.10
2023-05-21T15:41:23.419Z,10.90
2023-05-21T15:43:51.292Z,9.90
2023-05-21T15:46:19.537Z,12.20
2023-05-21T15:48:46.777Z,10.80
2023-05-21T15:51:14.455Z,13.60
2023-05-21T15:53:42.556Z,10.40
2023-05-21T15:56:10.215Z,8.40
2023-05-21T15:58:38.050Z,9.90
2023-05-21T16:01:05.194Z,11.20
2023-05-21T16:03:32.982Z,9.40
2023-05-21T16:06:00.390Z,9.00
2023-05-21T16:08:27.676Z,9.60
2023-05-21T16:10:55.124Z,9.10
2023-05-21T16:13:22.172Z,8.40
2023-05-21T16:15:51.167Z,8.30
2023-05-21T16:18:18.719Z,8.60
2023-05-21T16:20:47.450Z,7.40
2023-05-21T16:23:14.833Z,7.30
2023-05-21T16:25:42.017Z,9.70
2023-05-21T16:28:09.962Z,9.10
2023-05-21T16:30:37.112Z,6.80
2023-05-21T16:33:04.413Z,7.80
2023-05-21T16:35:32.242Z,7.70
2023-05-21T16:37:59.991Z,9.40
2023-05-21T16:40:27.561Z,9.70
2023-05-21T16:42:54.836Z,8.50
2023-05-21T16:45:22.317Z,8.70
2023-05-21T16:47:50.723Z,7.50
2023-05-21T16:50:19.560Z,11.40
2023-05-21T16:52:46.816Z,8.60
2023-05-21T16:55:14.108Z,8.00
2023-05-21T16:57:41.384Z,14.10
2023-05-21T17:00:09.361Z,9.10
2023-05-21T17:02:37.119Z,10.40
2023-05-21T17:05:05.362Z,10.20
2023-05-21T17:07:32.920Z,7.40
2023-05-21T17:10:00.413Z,6.80
2023-05-21T17:12:27.874Z,7.90
2023-05-21T17:14:56.670Z,6.60
2023-05-21T17:17:24.193Z,7.30
2023-05-21T17:19:51.529Z,6.90
2023-05-21T17:22:19.587Z,6.80
2023-05-21T17:24:46.753Z,6.20
2023-05-21T17:27:15.081Z,7.40
2023-05-21T17:29:42.753Z,7.30
2023-05-21T17:32:10.315Z,7.10
2023-05-21T17:34:37.595Z,7.40
2023-05-21T17:37:04.991Z,5.90
2023-05-21T17:39:33.890Z,5.40
2023-05-21T23:41:54.366Z,7.20
2023-05-21T23:44:21.123Z,7.00
2023-05-21T23:46:48.239Z,6.00
2023-05-21T23:49:14.764Z,8.80
2023-05-21T23:51:41.360Z,8.60
2023-05-21T23:54:08.197Z,6.90
2023-05-21T23:56:34.781Z,7.30
2023-05-21T23:59:01.727Z,6.60
